KGCY Airport (Greeneville Muni) Information

FAA: GCY - ICAO: KGCY

KGCY Airport Location

State Tennessee
County Greene
City Greeneville
KGCY Airport is 2 miles north of Greeneville, TN.
Latitude 36-11-44.6000N
Longitude 082-48-40.9000W
Elevation 1,607ft

KGCY Airport METARs

METAR KGCY 201835Z AUTO 32005KT 10SM CLR 29/18 A2983 RMK A01
Altimeter 29.83"
Temperature 29.0°C (84.2°F)
Wind 320° at 5KT
Clouds Skies are clear.
Visibility 10.0mi
Time observed: 2021-06-20T18:35:00Z

KGCY Airport Details

Status Operational
Activation N/A
Ownership Public
Usage Public
Chart CINCINNATI
ATC on-site No
Beacon schedule sunset-sunrise
Beacon color clear green

KGCY Airport Contacts

Owner GREENEVILLE MUNI AIRPORT AUTHORITY
Owner address 200 N COLLEGE ST, GREENEVILLE, TN 37743
Owner phone 423-639-7105
Manager ROGER BONE
Manager address 400 TICKLE STREET EAST, DYERSBURG, TN 38002
Manager phone 731-287-2410

KGCY Airport (Greeneville Muni) Radio Frequencies

KGCY (Airport) Radio Frequencies

UNICOM 122.7
Common traffic advisory frequency (CTAF) 122.7